sensor_id;sensor_type;location;lat;lon;timestamp;P1;durP1;ratioP1;P2;durP2;ratioP2
35126;SDS011;21300;52.006;5.798;2022-10-16T00:01:58;8.75;;;3.15;;
35126;SDS011;21300;52.006;5.798;2022-10-16T00:04:24;6.70;;;2.90;;
35126;SDS011;21300;52.006;5.798;2022-10-16T00:06:49;6.63;;;2.67;;
35126;SDS011;21300;52.006;5.798;2022-10-16T00:09:15;4.45;;;2.67;;
35126;SDS011;21300;52.006;5.798;2022-10-16T00:11:40;7.90;;;3.10;;
35126;SDS011;21300;52.006;5.798;2022-10-16T00:14:08;7.63;;;3.05;;
35126;SDS011;21300;52.006;5.798;2022-10-16T00:16:36;8.55;;;3.15;;
35126;SDS011;21300;52.006;5.798;2022-10-16T00:19:02;6.43;;;3.08;;
35126;SDS011;21300;52.006;5.798;2022-10-16T00:21:29;5.68;;;2.80;;
35126;SDS011;21300;52.006;5.798;2022-10-16T00:23:56;7.30;;;2.75;;
35126;SDS011;21300;52.006;5.798;2022-10-16T00:26:24;5.30;;;3.13;;
35126;SDS011;21300;52.006;5.798;2022-10-16T00:28:51;6.28;;;3.17;;
35126;SDS011;21300;52.006;5.798;2022-10-16T00:31:18;6.38;;;2.88;;
35126;SDS011;21300;52.006;5.798;2022-10-16T00:33:45;5.22;;;2.90;;
35126;SDS011;21300;52.006;5.798;2022-10-16T00:36:12;10.02;;;3.10;;
35126;SDS011;21300;52.006;5.798;2022-10-16T00:38:39;7.93;;;2.70;;
35126;SDS011;21300;52.006;5.798;2022-10-16T00:41:06;6.68;;;3.33;;
35126;SDS011;21300;52.006;5.798;2022-10-16T00:43:50;5.30;;;3.13;;
35126;SDS011;21300;52.006;5.798;2022-10-16T00:46:23;7.45;;;2.90;;
35126;SDS011;21300;52.006;5.798;2022-10-16T00:49:08;8.27;;;3.10;;
35126;SDS011;21300;52.006;5.798;2022-10-16T00:51:40;8.10;;;3.05;;
35126;SDS011;21300;52.006;5.798;2022-10-16T00:54:11;7.15;;;3.22;;
35126;SDS011;21300;52.006;5.798;2022-10-16T00:56:40;7.95;;;3.10;;
35126;SDS011;21300;52.006;5.798;2022-10-16T00:59:13;8.63;;;3.40;;
35126;SDS011;21300;52.006;5.798;2022-10-16T01:01:41;7.20;;;3.20;;
35126;SDS011;21300;52.006;5.798;2022-10-16T01:04:07;10.02;;;3.47;;
35126;SDS011;21300;52.006;5.798;2022-10-16T01:06:54;7.97;;;3.17;;
35126;SDS011;21300;52.006;5.798;2022-10-16T01:20:27;9.82;;;3.90;;
35126;SDS011;21300;52.006;5.798;2022-10-16T01:22:59;5.28;;;3.55;;
35126;SDS011;21300;52.006;5.798;2022-10-16T01:28:38;8.13;;;3.30;;
35126;SDS011;21300;52.006;5.798;2022-10-16T01:31:12;6.65;;;3.20;;
35126;SDS011;21300;52.006;5.798;2022-10-16T01:33:43;11.38;;;3.92;;
35126;SDS011;21300;52.006;5.798;2022-10-16T01:36:17;6.53;;;3.70;;
35126;SDS011;21300;52.006;5.798;2022-10-16T01:38:47;7.85;;;3.55;;
35126;SDS011;21300;52.006;5.798;2022-10-16T01:41:24;6.15;;;3.45;;
35126;SDS011;21300;52.006;5.798;2022-10-16T01:44:01;8.30;;;4.05;;
35126;SDS011;21300;52.006;5.798;2022-10-16T01:46:43;7.82;;;3.65;;
35126;SDS011;21300;52.006;5.798;2022-10-16T01:49:11;5.53;;;4.05;;
35126;SDS011;21300;52.006;5.798;2022-10-16T01:51:37;9.93;;;3.90;;
35126;SDS011;21300;52.006;5.798;2022-10-16T01:54:04;6.63;;;3.80;;
35126;SDS011;21300;52.006;5.798;2022-10-16T01:56:33;7.90;;;4.00;;
35126;SDS011;21300;52.006;5.798;2022-10-16T01:59:15;11.10;;;3.80;;
35126;SDS011;21300;52.006;5.798;2022-10-16T02:01:45;6.25;;;3.20;;
35126;SDS011;21300;52.006;5.798;2022-10-16T02:04:18;11.90;;;4.20;;
35126;SDS011;21300;52.006;5.798;2022-10-16T02:06:52;7.95;;;3.67;;
35126;SDS011;21300;52.006;5.798;2022-10-16T02:09:18;6.97;;;3.90;;
35126;SDS011;21300;52.006;5.798;2022-10-16T02:11:44;7.07;;;3.88;;
35126;SDS011;21300;52.006;5.798;2022-10-16T02:14:10;5.78;;;3.40;;
35126;SDS011;21300;52.006;5.798;2022-10-16T02:16:38;8.55;;;3.83;;
35126;SDS011;21300;52.006;5.798;2022-10-16T02:19:06;8.02;;;3.42;;
35126;SDS011;21300;52.006;5.798;2022-10-16T02:21:54;5.75;;;3.33;;
35126;SDS011;21300;52.006;5.798;2022-10-16T02:27:14;4.75;;;2.75;;
35126;SDS011;21300;52.006;5.798;2022-10-16T02:29:43;7.15;;;4.07;;
35126;SDS011;21300;52.006;5.798;2022-10-16T02:32:15;4.78;;;3.78;;
35126;SDS011;21300;52.006;5.798;2022-10-16T02:34:48;6.30;;;3.30;;
35126;SDS011;21300;52.006;5.798;2022-10-16T02:37:16;4.57;;;3.08;;
35126;SDS011;21300;52.006;5.798;2022-10-16T02:39:42;8.95;;;3.28;;
35126;SDS011;21300;52.006;5.798;2022-10-16T02:42:11;5.97;;;3.03;;
35126;SDS011;21300;52.006;5.798;2022-10-16T02:44:38;5.72;;;2.90;;
35126;SDS011;21300;52.006;5.798;2022-10-16T02:47:04;6.32;;;3.42;;
35126;SDS011;21300;52.006;5.798;2022-10-16T02:49:30;7.82;;;3.47;;
35126;SDS011;21300;52.006;5.798;2022-10-16T02:51:56;7.10;;;3.20;;
35126;SDS011;21300;52.006;5.798;2022-10-16T02:54:21;8.65;;;3.15;;
35126;SDS011;21300;52.006;5.798;2022-10-16T02:56:47;7.38;;;3.10;;
35126;SDS011;21300;52.006;5.798;2022-10-16T02:59:12;7.78;;;3.17;;
35126;SDS011;21300;52.006;5.798;2022-10-16T03:01:38;7.38;;;3.35;;
35126;SDS011;21300;52.006;5.798;2022-10-16T03:04:04;5.93;;;3.28;;
35126;SDS011;21300;52.006;5.798;2022-10-16T03:06:29;9.25;;;3.17;;
35126;SDS011;21300;52.006;5.798;2022-10-16T03:08:55;4.65;;;2.92;;
35126;SDS011;21300;52.006;5.798;2022-10-16T03:11:20;5.90;;;3.35;;
35126;SDS011;21300;52.006;5.798;2022-10-16T03:13:46;6.00;;;3.53;;
35126;SDS011;21300;52.006;5.798;2022-10-16T03:16:12;6.65;;;3.22;;
35126;SDS011;21300;52.006;5.798;2022-10-16T03:18:37;6.30;;;3.40;;
35126;SDS011;21300;52.006;5.798;2022-10-16T03:21:03;7.88;;;3.20;;
35126;SDS011;21300;52.006;5.798;2022-10-16T03:23:29;4.43;;;2.60;;
35126;SDS011;21300;52.006;5.798;2022-10-16T03:25:54;4.75;;;3.33;;
35126;SDS011;21300;52.006;5.798;2022-10-16T03:28:20;5.18;;;3.00;;
35126;SDS011;21300;52.006;5.798;2022-10-16T03:30:45;4.38;;;2.58;;
35126;SDS011;21300;52.006;5.798;2022-10-16T03:33:11;4.75;;;3.13;;
35126;SDS011;21300;52.006;5.798;2022-10-16T03:35:37;4.53;;;3.17;;
35126;SDS011;21300;52.006;5.798;2022-10-16T03:38:02;5.65;;;3.00;;
35126;SDS011;21300;52.006;5.798;2022-10-16T03:40:28;4.95;;;3.40;;
35126;SDS011;21300;52.006;5.798;2022-10-16T03:42:56;5.03;;;3.60;;
35126;SDS011;21300;52.006;5.798;2022-10-16T03:45:22;4.90;;;3.10;;
35126;SDS011;21300;52.006;5.798;2022-10-16T03:47:48;4.15;;;3.10;;
35126;SDS011;21300;52.006;5.798;2022-10-16T03:50:14;7.68;;;3.15;;
35126;SDS011;21300;52.006;5.798;2022-10-16T03:52:40;4.22;;;2.75;;
35126;SDS011;21300;52.006;5.798;2022-10-16T03:55:06;5.47;;;2.80;;
35126;SDS011;21300;52.006;5.798;2022-10-16T03:57:32;5.25;;;3.65;;
35126;SDS011;21300;52.006;5.798;2022-10-16T03:59:58;4.75;;;2.83;;
35126;SDS011;21300;52.006;5.798;2022-10-16T04:02:23;8.32;;;2.78;;
35126;SDS011;21300;52.006;5.798;2022-10-16T04:04:49;6.30;;;2.72;;
35126;SDS011;21300;52.006;5.798;2022-10-16T04:07:15;4.88;;;2.63;;
35126;SDS011;21300;52.006;5.798;2022-10-16T04:09:40;3.30;;;2.40;;
35126;SDS011;21300;52.006;5.798;2022-10-16T04:12:07;6.40;;;3.20;;
35126;SDS011;21300;52.006;5.798;2022-10-16T04:14:32;4.57;;;2.63;;
35126;SDS011;21300;52.006;5.798;2022-10-16T04:16:59;4.38;;;2.53;;
35126;SDS011;21300;52.006;5.798;2022-10-16T04:19:24;7.72;;;3.10;;
35126;SDS011;21300;52.006;5.798;2022-10-16T04:21:50;5.57;;;2.75;;
35126;SDS011;21300;52.006;5.798;2022-10-16T04:24:15;10.57;;;3.25;;
35126;SDS011;21300;52.006;5.798;2022-10-16T04:26:41;5.32;;;2.80;;
35126;SDS011;21300;52.006;5.798;2022-10-16T04:29:07;6.25;;;2.67;;
35126;SDS011;21300;52.006;5.798;2022-10-16T04:31:33;4.72;;;3.03;;
35126;SDS011;21300;52.006;5.798;2022-10-16T04:33:58;5.95;;;2.97;;
35126;SDS011;21300;52.006;5.798;2022-10-16T04:36:24;6.63;;;2.95;;
35126;SDS011;21300;52.006;5.798;2022-10-16T04:38:49;6.35;;;2.90;;
35126;SDS011;21300;52.006;5.798;2022-10-16T04:41:15;3.35;;;2.22;;
35126;SDS011;21300;52.006;5.798;2022-10-16T04:43:41;7.00;;;2.60;;
35126;SDS011;21300;52.006;5.798;2022-10-16T04:46:06;7.63;;;3.25;;
35126;SDS011;21300;52.006;5.798;2022-10-16T04:48:32;7.15;;;3.00;;
35126;SDS011;21300;52.006;5.798;2022-10-16T04:50:58;6.53;;;3.00;;
35126;SDS011;21300;52.006;5.798;2022-10-16T04:53:24;5.15;;;2.80;;
35126;SDS011;21300;52.006;5.798;2022-10-16T04:55:50;6.70;;;2.70;;
35126;SDS011;21300;52.006;5.798;2022-10-16T04:58:16;4.72;;;2.92;;
35126;SDS011;21300;52.006;5.798;2022-10-16T05:00:42;5.60;;;2.72;;
35126;SDS011;21300;52.006;5.798;2022-10-16T05:03:08;6.10;;;2.45;;
35126;SDS011;21300;52.006;5.798;2022-10-16T05:05:34;4.30;;;2.78;;
35126;SDS011;21300;52.006;5.798;2022-10-16T05:08:00;3.60;;;2.28;;
35126;SDS011;21300;52.006;5.798;2022-10-16T05:10:26;5.50;;;2.95;;
35126;SDS011;21300;52.006;5.798;2022-10-16T05:12:52;4.13;;;2.53;;
35126;SDS011;21300;52.006;5.798;2022-10-16T05:15:17;3.80;;;2.50;;
35126;SDS011;21300;52.006;5.798;2022-10-16T05:17:43;6.38;;;3.03;;
35126;SDS011;21300;52.006;5.798;2022-10-16T05:20:09;4.15;;;2.55;;
35126;SDS011;21300;52.006;5.798;2022-10-16T05:22:36;10.63;;;2.90;;
35126;SDS011;21300;52.006;5.798;2022-10-16T05:25:01;3.50;;;2.30;;
35126;SDS011;21300;52.006;5.798;2022-10-16T05:27:27;5.22;;;2.33;;
35126;SDS011;21300;52.006;5.798;2022-10-16T05:29:53;4.82;;;2.72;;
35126;SDS011;21300;52.006;5.798;2022-10-16T05:32:18;5.03;;;2.45;;
35126;SDS011;21300;52.006;5.798;2022-10-16T05:34:44;6.18;;;2.90;;
35126;SDS011;21300;52.006;5.798;2022-10-16T05:37:10;3.85;;;2.50;;
35126;SDS011;21300;52.006;5.798;2022-10-16T05:39:37;4.38;;;3.10;;
35126;SDS011;21300;52.006;5.798;2022-10-16T05:42:03;5.57;;;2.63;;
35126;SDS011;21300;52.006;5.798;2022-10-16T05:44:30;8.65;;;2.63;;
35126;SDS011;21300;52.006;5.798;2022-10-16T05:46:55;3.88;;;2.90;;
35126;SDS011;21300;52.006;5.798;2022-10-16T05:49:21;6.82;;;2.45;;
35126;SDS011;21300;52.006;5.798;2022-10-16T05:51:46;5.13;;;2.58;;
35126;SDS011;21300;52.006;5.798;2022-10-16T05:54:12;3.33;;;2.15;;
35126;SDS011;21300;52.006;5.798;2022-10-16T05:56:38;5.28;;;2.53;;
35126;SDS011;21300;52.006;5.798;2022-10-16T05:59:04;8.65;;;3.00;;
35126;SDS011;21300;52.006;5.798;2022-10-16T06:01:30;5.47;;;2.45;;
35126;SDS011;21300;52.006;5.798;2022-10-16T06:03:56;5.15;;;2.10;;
35126;SDS011;21300;52.006;5.798;2022-10-16T06:06:25;5.38;;;2.10;;
35126;SDS011;21300;52.006;5.798;2022-10-16T06:08:51;7.22;;;2.67;;
35126;SDS011;21300;52.006;5.798;2022-10-16T06:11:19;7.60;;;2.92;;
35126;SDS011;21300;52.006;5.798;2022-10-16T06:13:50;4.95;;;2.70;;
35126;SDS011;21300;52.006;5.798;2022-10-16T06:16:16;4.55;;;2.78;;
35126;SDS011;21300;52.006;5.798;2022-10-16T06:18:42;4.55;;;2.90;;
35126;SDS011;21300;52.006;5.798;2022-10-16T06:21:09;5.10;;;2.60;;
35126;SDS011;21300;52.006;5.798;2022-10-16T06:23:36;5.75;;;2.65;;
35126;SDS011;21300;52.006;5.798;2022-10-16T06:26:05;4.45;;;2.65;;
35126;SDS011;21300;52.006;5.798;2022-10-16T06:28:31;5.97;;;2.90;;
35126;SDS011;21300;52.006;5.798;2022-10-16T06:31:01;5.28;;;2.83;;
35126;SDS011;21300;52.006;5.798;2022-10-16T06:33:27;7.72;;;2.60;;
35126;SDS011;21300;52.006;5.798;2022-10-16T06:35:53;7.22;;;2.85;;
35126;SDS011;21300;52.006;5.798;2022-10-16T06:38:18;6.95;;;3.15;;
35126;SDS011;21300;52.006;5.798;2022-10-16T06:40:44;5.35;;;2.88;;
35126;SDS011;21300;52.006;5.798;2022-10-16T06:43:10;6.88;;;3.13;;
35126;SDS011;21300;52.006;5.798;2022-10-16T06:45:35;6.20;;;3.10;;
35126;SDS011;21300;52.006;5.798;2022-10-16T06:48:01;4.70;;;3.20;;
35126;SDS011;21300;52.006;5.798;2022-10-16T06:50:26;5.22;;;3.00;;
35126;SDS011;21300;52.006;5.798;2022-10-16T06:52:52;10.25;;;3.13;;
35126;SDS011;21300;52.006;5.798;2022-10-16T06:55:18;6.53;;;3.45;;
35126;SDS011;21300;52.006;5.798;2022-10-16T06:57:43;10.32;;;3.35;;
35126;SDS011;21300;52.006;5.798;2022-10-16T07:00:11;5.75;;;3.03;;
35126;SDS011;21300;52.006;5.798;2022-10-16T07:02:37;7.10;;;3.30;;
35126;SDS011;21300;52.006;5.798;2022-10-16T07:05:03;5.68;;;3.05;;
35126;SDS011;21300;52.006;5.798;2022-10-16T07:07:29;7.68;;;3.42;;
35126;SDS011;21300;52.006;5.798;2022-10-16T07:09:54;5.32;;;2.90;;
35126;SDS011;21300;52.006;5.798;2022-10-16T07:12:20;8.45;;;3.25;;
35126;SDS011;21300;52.006;5.798;2022-10-16T07:14:45;6.45;;;3.40;;
35126;SDS011;21300;52.006;5.798;2022-10-16T07:17:11;7.25;;;3.17;;
35126;SDS011;21300;52.006;5.798;2022-10-16T07:19:37;9.38;;;3.03;;
35126;SDS011;21300;52.006;5.798;2022-10-16T07:22:02;5.18;;;3.45;;
35126;SDS011;21300;52.006;5.798;2022-10-16T07:24:28;6.13;;;3.58;;
35126;SDS011;21300;52.006;5.798;2022-10-16T07:27:12;5.85;;;3.55;;
35126;SDS011;21300;52.006;5.798;2022-10-16T07:29:38;5.50;;;3.28;;
35126;SDS011;21300;52.006;5.798;2022-10-16T07:32:04;5.10;;;3.50;;
35126;SDS011;21300;52.006;5.798;2022-10-16T07:34:30;12.20;;;3.95;;
35126;SDS011;21300;52.006;5.798;2022-10-16T07:36:55;4.80;;;3.47;;
35126;SDS011;21300;52.006;5.798;2022-10-16T07:39:21;7.25;;;3.83;;
35126;SDS011;21300;52.006;5.798;2022-10-16T07:41:46;6.72;;;3.70;;
35126;SDS011;21300;52.006;5.798;2022-10-16T07:44:12;8.80;;;3.83;;
35126;SDS011;21300;52.006;5.798;2022-10-16T07:46:38;9.85;;;4.60;;
35126;SDS011;21300;52.006;5.798;2022-10-16T07:49:03;7.47;;;4.43;;
35126;SDS011;21300;52.006;5.798;2022-10-16T07:51:29;7.80;;;3.60;;
35126;SDS011;21300;52.006;5.798;2022-10-16T07:53:54;9.93;;;4.15;;
35126;SDS011;21300;52.006;5.798;2022-10-16T07:56:20;8.80;;;3.78;;
35126;SDS011;21300;52.006;5.798;2022-10-16T07:58:46;6.10;;;3.10;;
35126;SDS011;21300;52.006;5.798;2022-10-16T08:01:15;6.60;;;2.90;;
35126;SDS011;21300;52.006;5.798;2022-10-16T08:03:45;8.20;;;3.25;;
35126;SDS011;21300;52.006;5.798;2022-10-16T08:06:12;7.30;;;3.90;;
35126;SDS011;21300;52.006;5.798;2022-10-16T08:08:38;7.05;;;3.88;;
35126;SDS011;21300;52.006;5.798;2022-10-16T08:11:04;6.93;;;3.25;;
35126;SDS011;21300;52.006;5.798;2022-10-16T08:13:30;5.35;;;3.60;;
35126;SDS011;21300;52.006;5.798;2022-10-16T08:15:56;6.25;;;2.90;;
35126;SDS011;21300;52.006;5.798;2022-10-16T08:18:22;4.85;;;2.67;;
35126;SDS011;21300;52.006;5.798;2022-10-16T08:20:47;6.90;;;2.60;;
35126;SDS011;21300;52.006;5.798;2022-10-16T08:23:19;4.65;;;3.22;;
35126;SDS011;21300;52.006;5.798;2022-10-16T08:25:45;6.15;;;3.35;;
35126;SDS011;21300;52.006;5.798;2022-10-16T08:28:10;8.52;;;3.08;;
35126;SDS011;21300;52.006;5.798;2022-10-16T08:30:36;4.15;;;2.83;;
35126;SDS011;21300;52.006;5.798;2022-10-16T08:33:02;6.47;;;3.55;;
35126;SDS011;21300;52.006;5.798;2022-10-16T08:35:28;11.13;;;4.47;;
35126;SDS011;21300;52.006;5.798;2022-10-16T08:37:54;6.75;;;4.60;;
35126;SDS011;21300;52.006;5.798;2022-10-16T08:40:21;7.93;;;4.30;;
35126;SDS011;21300;52.006;5.798;2022-10-16T08:46:03;7.65;;;4.13;;
35126;SDS011;21300;52.006;5.798;2022-10-16T08:48:49;8.20;;;4.45;;
35126;SDS011;21300;52.006;5.798;2022-10-16T08:51:32;7.95;;;4.10;;
35126;SDS011;21300;52.006;5.798;2022-10-16T08:54:03;5.88;;;4.28;;
35126;SDS011;21300;52.006;5.798;2022-10-16T08:56:56;11.38;;;4.40;;
35126;SDS011;21300;52.006;5.798;2022-10-16T08:59:26;12.27;;;4.22;;
35126;SDS011;21300;52.006;5.798;2022-10-16T09:01:52;8.88;;;4.35;;
35126;SDS011;21300;52.006;5.798;2022-10-16T09:07:01;10.07;;;3.90;;
35126;SDS011;21300;52.006;5.798;2022-10-16T09:12:27;9.43;;;4.03;;
35126;SDS011;21300;52.006;5.798;2022-10-16T09:18:09;10.98;;;3.70;;
35126;SDS011;21300;52.006;5.798;2022-10-16T09:23:17;7.57;;;3.35;;
35126;SDS011;21300;52.006;5.798;2022-10-16T09:25:54;8.10;;;3.40;;
35126;SDS011;21300;52.006;5.798;2022-10-16T09:28:22;12.98;;;3.10;;
35126;SDS011;21300;52.006;5.798;2022-10-16T09:30:47;14.25;;;3.38;;
35126;SDS011;21300;52.006;5.798;2022-10-16T09:33:14;11.48;;;2.78;;
35126;SDS011;21300;52.006;5.798;2022-10-16T09:35:43;9.35;;;3.00;;
35126;SDS011;21300;52.006;5.798;2022-10-16T09:38:24;6.90;;;2.88;;
35126;SDS011;21300;52.006;5.798;2022-10-16T09:40:53;8.73;;;3.08;;
35126;SDS011;21300;52.006;5.798;2022-10-16T09:43:32;13.65;;;3.03;;
35126;SDS011;21300;52.006;5.798;2022-10-16T09:46:05;15.13;;;3.35;;
35126;SDS011;21300;52.006;5.798;2022-10-16T09:48:37;12.18;;;3.90;;
35126;SDS011;21300;52.006;5.798;2022-10-16T09:51:16;12.15;;;3.08;;
35126;SDS011;21300;52.006;5.798;2022-10-16T09:59:45;10.75;;;3.20;;
35126;SDS011;21300;52.006;5.798;2022-10-16T10:02:12;9.80;;;3.22;;
35126;SDS011;21300;52.006;5.798;2022-10-16T10:04:41;9.18;;;2.78;;
35126;SDS011;21300;52.006;5.798;2022-10-16T10:07:18;10.57;;;3.30;;
35126;SDS011;21300;52.006;5.798;2022-10-16T10:09:50;15.63;;;4.03;;
35126;SDS011;21300;52.006;5.798;2022-10-16T10:12:25;11.65;;;3.60;;
35126;SDS011;21300;52.006;5.798;2022-10-16T10:14:55;16.80;;;3.92;;
35126;SDS011;21300;52.006;5.798;2022-10-16T10:17:23;15.07;;;3.67;;
35126;SDS011;21300;52.006;5.798;2022-10-16T10:19:58;15.93;;;3.42;;
35126;SDS011;21300;52.006;5.798;2022-10-16T10:30:39;13.38;;;2.95;;
35126;SDS011;21300;52.006;5.798;2022-10-16T10:38:47;19.10;;;3.20;;
35126;SDS011;21300;52.006;5.798;2022-10-16T10:55:02;20.23;;;2.88;;
35126;SDS011;21300;52.006;5.798;2022-10-16T10:58:08;12.25;;;2.25;;
35126;SDS011;21300;52.006;5.798;2022-10-16T11:01:02;15.43;;;2.22;;
35126;SDS011;21300;52.006;5.798;2022-10-16T11:06:22;14.25;;;2.10;;
35126;SDS011;21300;52.006;5.798;2022-10-16T11:08:53;15.50;;;2.08;;
35126;SDS011;21300;52.006;5.798;2022-10-16T11:11:29;15.63;;;2.42;;
35126;SDS011;21300;52.006;5.798;2022-10-16T11:16:30;11.07;;;2.20;;
35126;SDS011;21300;52.006;5.798;2022-10-16T11:22:33;11.85;;;2.13;;
35126;SDS011;21300;52.006;5.798;2022-10-16T11:27:55;15.00;;;2.20;;
35126;SDS011;21300;52.006;5.798;2022-10-16T11:30:23;10.40;;;2.17;;
35126;SDS011;21300;52.006;5.798;2022-10-16T11:36:11;14.52;;;2.15;;
35126;SDS011;21300;52.006;5.798;2022-10-16T11:38:48;21.48;;;2.08;;
35126;SDS011;21300;52.006;5.798;2022-10-16T11:41:36;13.75;;;2.03;;
35126;SDS011;21300;52.006;5.798;2022-10-16T11:44:41;15.32;;;2.03;;
35126;SDS011;21300;52.006;5.798;2022-10-16T11:50:02;14.57;;;2.85;;
35126;SDS011;21300;52.006;5.798;2022-10-16T11:52:44;20.35;;;3.80;;
35126;SDS011;21300;52.006;5.798;2022-10-16T11:55:17;13.00;;;2.13;;
35126;SDS011;21300;52.006;5.798;2022-10-16T11:57:57;12.73;;;1.90;;
35126;SDS011;21300;52.006;5.798;2022-10-16T12:00:31;12.70;;;2.25;;
35126;SDS011;21300;52.006;5.798;2022-10-16T12:03:20;11.07;;;1.92;;
35126;SDS011;21300;52.006;5.798;2022-10-16T12:06:10;13.20;;;2.03;;
35126;SDS011;21300;52.006;5.798;2022-10-16T12:08:38;14.02;;;1.95;;
35126;SDS011;21300;52.006;5.798;2022-10-16T12:11:09;9.55;;;1.65;;
35126;SDS011;21300;52.006;5.798;2022-10-16T12:16:56;15.07;;;2.45;;
35126;SDS011;21300;52.006;5.798;2022-10-16T12:19:30;12.10;;;1.90;;
35126;SDS011;21300;52.006;5.798;2022-10-16T12:21:57;8.88;;;1.60;;
35126;SDS011;21300;52.006;5.798;2022-10-16T12:24:34;14.77;;;2.38;;
35126;SDS011;21300;52.006;5.798;2022-10-16T12:27:02;15.98;;;1.85;;
35126;SDS011;21300;52.006;5.798;2022-10-16T12:29:35;10.48;;;2.15;;
35126;SDS011;21300;52.006;5.798;2022-10-16T12:32:20;9.18;;;1.60;;
35126;SDS011;21300;52.006;5.798;2022-10-16T12:34:48;14.60;;;2.30;;
35126;SDS011;21300;52.006;5.798;2022-10-16T12:37:24;14.18;;;1.90;;
35126;SDS011;21300;52.006;5.798;2022-10-16T12:39:53;9.40;;;1.70;;
35126;SDS011;21300;52.006;5.798;2022-10-16T12:44:51;11.45;;;1.52;;
35126;SDS011;21300;52.006;5.798;2022-10-16T12:47:34;12.13;;;1.65;;
35126;SDS011;21300;52.006;5.798;2022-10-16T12:50:02;9.07;;;1.80;;
35126;SDS011;21300;52.006;5.798;2022-10-16T12:52:38;11.00;;;1.90;;
35126;SDS011;21300;52.006;5.798;2022-10-16T12:55:05;8.57;;;2.35;;
35126;SDS011;21300;52.006;5.798;2022-10-16T12:57:59;12.20;;;2.03;;
35126;SDS011;21300;52.006;5.798;2022-10-16T13:00:28;11.18;;;1.95;;
35126;SDS011;21300;52.006;5.798;2022-10-16T13:03:17;15.02;;;1.67;;
35126;SDS011;21300;52.006;5.798;2022-10-16T13:08:57;9.55;;;1.80;;
35126;SDS011;21300;52.006;5.798;2022-10-16T13:17:23;11.90;;;1.50;;
35126;SDS011;21300;52.006;5.798;2022-10-16T13:25:22;13.30;;;2.20;;
35126;SDS011;21300;52.006;5.798;2022-10-16T13:27:55;11.18;;;2.08;;
35126;SDS011;21300;52.006;5.798;2022-10-16T13:30:29;14.43;;;2.15;;
35126;SDS011;21300;52.006;5.798;2022-10-16T13:32:59;10.35;;;1.83;;
35126;SDS011;21300;52.006;5.798;2022-10-16T13:35:33;8.85;;;1.70;;
35126;SDS011;21300;52.006;5.798;2022-10-16T13:38:04;14.30;;;2.13;;
35126;SDS011;21300;52.006;5.798;2022-10-16T13:40:29;14.98;;;2.75;;
35126;SDS011;21300;52.006;5.798;2022-10-16T13:42:55;13.82;;;2.15;;
35126;SDS011;21300;52.006;5.798;2022-10-16T13:45:22;12.85;;;2.25;;
35126;SDS011;21300;52.006;5.798;2022-10-16T13:47:50;10.60;;;1.90;;
35126;SDS011;21300;52.006;5.798;2022-10-16T13:50:26;12.50;;;2.08;;
35126;SDS011;21300;52.006;5.798;2022-10-16T13:52:51;10.93;;;2.17;;
35126;SDS011;21300;52.006;5.798;2022-10-16T13:55:27;8.48;;;1.70;;
35126;SDS011;21300;52.006;5.798;2022-10-16T13:57:53;8.13;;;2.15;;
35126;SDS011;21300;52.006;5.798;2022-10-16T14:00:34;12.32;;;1.83;;
35126;SDS011;21300;52.006;5.798;2022-10-16T14:03:04;14.05;;;2.28;;
35126;SDS011;21300;52.006;5.798;2022-10-16T14:05:32;9.27;;;2.08;;
35126;SDS011;21300;52.006;5.798;2022-10-16T14:07:58;9.90;;;1.90;;
35126;SDS011;21300;52.006;5.798;2022-10-16T14:10:25;13.40;;;2.80;;
35126;SDS011;21300;52.006;5.798;2022-10-16T14:13:05;10.50;;;1.98;;
35126;SDS011;21300;52.006;5.798;2022-10-16T14:15:33;11.68;;;2.88;;
35126;SDS011;21300;52.006;5.798;2022-10-16T14:18:01;12.77;;;1.80;;
35126;SDS011;21300;52.006;5.798;2022-10-16T14:20:32;7.80;;;1.50;;
35126;SDS011;21300;52.006;5.798;2022-10-16T14:23:03;14.82;;;1.90;;
35126;SDS011;21300;52.006;5.798;2022-10-16T14:25:44;8.88;;;1.67;;
35126;SDS011;21300;52.006;5.798;2022-10-16T14:28:20;12.35;;;2.13;;
35126;SDS011;21300;52.006;5.798;2022-10-16T14:38:55;12.88;;;1.67;;
35126;SDS011;21300;52.006;5.798;2022-10-16T14:41:25;10.93;;;1.50;;
35126;SDS011;21300;52.006;5.798;2022-10-16T14:43:55;13.07;;;1.77;;
35126;SDS011;21300;52.006;5.798;2022-10-16T14:46:32;12.30;;;2.00;;
35126;SDS011;21300;52.006;5.798;2022-10-16T14:51:34;18.48;;;3.33;;
35126;SDS011;21300;52.006;5.798;2022-10-16T14:54:00;12.07;;;2.33;;
35126;SDS011;21300;52.006;5.798;2022-10-16T14:56:30;11.80;;;2.47;;
35126;SDS011;21300;52.006;5.798;2022-10-16T14:59:07;14.23;;;2.45;;
35126;SDS011;21300;52.006;5.798;2022-10-16T15:01:39;10.75;;;1.92;;
35126;SDS011;21300;52.006;5.798;2022-10-16T15:04:07;9.57;;;1.98;;
35126;SDS011;21300;52.006;5.798;2022-10-16T15:06:35;12.60;;;2.13;;
35126;SDS011;21300;52.006;5.798;2022-10-16T15:11:44;11.65;;;2.47;;
35126;SDS011;21300;52.006;5.798;2022-10-16T15:14:12;15.88;;;2.65;;
35126;SDS011;21300;52.006;5.798;2022-10-16T15:16:38;9.13;;;2.15;;
35126;SDS011;21300;52.006;5.798;2022-10-16T15:19:04;10.88;;;2.58;;
35126;SDS011;21300;52.006;5.798;2022-10-16T15:21:30;10.32;;;2.40;;
35126;SDS011;21300;52.006;5.798;2022-10-16T15:23:57;11.02;;;2.30;;
35126;SDS011;21300;52.006;5.798;2022-10-16T15:26:25;17.65;;;2.30;;
35126;SDS011;21300;52.006;5.798;2022-10-16T15:28:51;13.25;;;2.10;;
35126;SDS011;21300;52.006;5.798;2022-10-16T15:31:17;13.57;;;2.28;;
35126;SDS011;21300;52.006;5.798;2022-10-16T15:33:44;14.75;;;3.15;;
35126;SDS011;21300;52.006;5.798;2022-10-16T15:36:12;14.27;;;2.22;;
35126;SDS011;21300;52.006;5.798;2022-10-16T15:38:38;6.95;;;2.20;;
35126;SDS011;21300;52.006;5.798;2022-10-16T15:41:04;9.80;;;2.03;;
35126;SDS011;21300;52.006;5.798;2022-10-16T15:43:29;13.75;;;2.65;;
35126;SDS011;21300;52.006;5.798;2022-10-16T15:46:00;12.75;;;2.53;;
35126;SDS011;21300;52.006;5.798;2022-10-16T15:48:26;11.35;;;2.97;;
35126;SDS011;21300;52.006;5.798;2022-10-16T15:50:52;11.07;;;2.78;;
35126;SDS011;21300;52.006;5.798;2022-10-16T15:53:18;12.27;;;2.80;;
35126;SDS011;21300;52.006;5.798;2022-10-16T15:55:43;8.63;;;2.20;;
35126;SDS011;21300;52.006;5.798;2022-10-16T15:58:09;13.25;;;2.47;;
35126;SDS011;21300;52.006;5.798;2022-10-16T16:00:35;10.80;;;2.88;;
35126;SDS011;21300;52.006;5.798;2022-10-16T16:03:00;12.02;;;2.65;;
35126;SDS011;21300;52.006;5.798;2022-10-16T16:05:26;10.32;;;2.53;;
35126;SDS011;21300;52.006;5.798;2022-10-16T16:07:52;12.52;;;2.72;;
35126;SDS011;21300;52.006;5.798;2022-10-16T16:10:18;12.43;;;2.47;;
35126;SDS011;21300;52.006;5.798;2022-10-16T16:12:49;14.48;;;4.47;;
35126;SDS011;21300;52.006;5.798;2022-10-16T16:15:17;19.70;;;4.47;;
35126;SDS011;21300;52.006;5.798;2022-10-16T16:17:46;14.48;;;2.50;;
35126;SDS011;21300;52.006;5.798;2022-10-16T16:20:12;13.63;;;2.47;;
35126;SDS011;21300;52.006;5.798;2022-10-16T16:22:38;9.90;;;2.05;;
35126;SDS011;21300;52.006;5.798;2022-10-16T16:25:04;10.27;;;2.47;;
35126;SDS011;21300;52.006;5.798;2022-10-16T16:27:30;16.70;;;2.30;;
35126;SDS011;21300;52.006;5.798;2022-10-16T16:29:58;14.80;;;2.38;;
35126;SDS011;21300;52.006;5.798;2022-10-16T16:32:24;13.23;;;2.53;;
35126;SDS011;21300;52.006;5.798;2022-10-16T16:34:50;6.63;;;1.88;;
35126;SDS011;21300;52.006;5.798;2022-10-16T16:37:15;11.25;;;2.42;;
35126;SDS011;21300;52.006;5.798;2022-10-16T16:39:41;10.60;;;2.10;;
35126;SDS011;21300;52.006;5.798;2022-10-16T16:42:07;12.80;;;3.13;;
35126;SDS011;21300;52.006;5.798;2022-10-16T16:44:35;10.30;;;2.20;;
35126;SDS011;21300;52.006;5.798;2022-10-16T16:47:01;21.02;;;3.22;;
35126;SDS011;21300;52.006;5.798;2022-10-16T16:49:27;13.10;;;2.78;;
35126;SDS011;21300;52.006;5.798;2022-10-16T16:51:53;13.10;;;3.05;;